createdAt,value
2022-10-23T00:02:29.608Z,5.93
2022-10-23T00:05:01.055Z,6.03
2022-10-23T00:07:32.523Z,6.40
2022-10-23T00:10:04.158Z,6.63
2022-10-23T00:12:35.559Z,7.93
2022-10-23T00:15:07.286Z,6.20
2022-10-23T00:17:39.073Z,6.07
2022-10-23T00:20:12.089Z,5.97
2022-10-23T00:22:43.413Z,7.20
2022-10-23T00:25:16.335Z,8.47
2022-10-23T00:27:47.594Z,7.87
2022-10-23T00:30:18.908Z,6.43
2022-10-23T00:32:50.195Z,9.53
2022-10-23T00:35:21.519Z,9.70
2022-10-23T00:37:52.793Z,6.90
2022-10-23T00:40:24.074Z,7.07
2022-10-23T00:42:55.333Z,7.27
2022-10-23T00:45:33.267Z,8.67
2022-10-23T00:48:04.846Z,8.03
2022-10-23T00:50:36.303Z,7.70
2022-10-23T00:53:08.858Z,7.07
2022-10-23T00:55:46.702Z,9.30
2022-10-23T00:58:20.391Z,7.60
2022-10-23T01:00:56.318Z,8.60
2022-10-23T01:03:28.879Z,6.60
2022-10-23T01:06:11.233Z,7.00
2022-10-23T01:09:11.916Z,6.47
2022-10-23T01:11:57.537Z,6.63
2022-10-23T01:14:42.227Z,7.80
2022-10-23T01:17:34.879Z,6.23
2022-10-23T01:20:46.817Z,7.60
2022-10-23T01:23:30.562Z,6.30
2022-10-23T01:26:22.399Z,6.07
2022-10-23T01:29:01.039Z,6.80
2022-10-23T01:31:44.879Z,6.53
2022-10-23T01:34:22.112Z,6.50
2022-10-23T01:36:54.466Z,9.17
2022-10-23T01:39:31.041Z,15.37
2022-10-23T01:42:11.313Z,6.87
2022-10-23T01:44:47.177Z,6.83
2022-10-23T01:50:00.035Z,6.60
2022-10-23T01:52:31.557Z,6.23
2022-10-23T01:55:04.134Z,7.63
2022-10-23T01:57:37.411Z,5.30
2022-10-23T02:00:13.375Z,5.33
2022-10-23T02:02:47.631Z,5.45
2022-10-23T02:05:24.139Z,5.93
2022-10-23T02:07:56.182Z,6.03
2022-10-23T02:10:57.786Z,6.00
2022-10-23T02:13:47.862Z,6.07
2022-10-23T02:16:42.789Z,6.53
2022-10-23T02:19:38.246Z,5.77
2022-10-23T02:22:14.186Z,6.70
2022-10-23T02:24:58.234Z,5.93
2022-10-23T02:27:35.154Z,5.97
2022-10-23T02:30:08.845Z,6.20
2022-10-23T02:32:45.004Z,6.40
2022-10-23T02:35:18.726Z,6.70
2022-10-23T02:38:01.431Z,6.60
2022-10-23T02:40:45.526Z,6.70
2022-10-23T02:43:27.650Z,6.63
2022-10-23T02:46:21.713Z,5.80
2022-10-23T02:49:11.331Z,6.87
2022-10-23T02:52:00.321Z,7.03
2022-10-23T02:54:46.992Z,6.67
2022-10-23T03:00:08.127Z,6.07
2022-10-23T03:03:11.186Z,5.73
2022-10-23T03:05:44.884Z,5.70
2022-10-23T03:08:16.338Z,6.47
2022-10-23T03:13:19.796Z,5.90
2022-10-23T03:15:51.070Z,4.97
2022-10-23T03:18:22.307Z,5.77
2022-10-23T03:20:53.554Z,5.77
2022-10-23T03:23:24.869Z,5.67
2022-10-23T03:25:56.405Z,6.23
2022-10-23T03:28:27.688Z,5.53
2022-10-23T03:30:59.028Z,5.50
2022-10-23T03:33:31.398Z,5.10
2022-10-23T03:36:02.828Z,5.50
2022-10-23T03:38:34.094Z,6.27
2022-10-23T03:41:05.491Z,6.03
2022-10-23T03:43:36.790Z,6.00
2022-10-23T03:46:12.295Z,6.37
2022-10-23T03:48:43.594Z,6.25
2022-10-23T03:51:14.960Z,6.00
2022-10-23T03:53:46.218Z,5.73
2022-10-23T03:56:17.521Z,6.33
2022-10-23T03:58:49.109Z,6.27
2022-10-23T04:01:20.390Z,5.57
2022-10-23T04:03:52.085Z,5.97
2022-10-23T04:06:23.335Z,7.27
2022-10-23T04:08:54.689Z,4.70
2022-10-23T04:11:25.970Z,8.33
2022-10-23T04:13:57.238Z,5.40
2022-10-23T04:16:28.535Z,5.27
2022-10-23T04:18:59.786Z,5.47
2022-10-23T04:21:31.046Z,5.73
2022-10-23T04:24:02.321Z,5.90
2022-10-23T04:26:33.649Z,5.90
2022-10-23T04:29:04.926Z,5.43
2022-10-23T04:31:36.185Z,5.13
2022-10-23T04:34:07.532Z,5.33
2022-10-23T04:36:38.914Z,5.33
2022-10-23T04:39:10.733Z,5.40
2022-10-23T04:41:42.082Z,5.63
2022-10-23T04:44:13.451Z,4.87
2022-10-23T04:46:44.731Z,4.80
2022-10-23T04:49:16.090Z,4.97
2022-10-23T04:51:47.341Z,4.47
2022-10-23T04:54:18.589Z,4.87
2022-10-23T04:56:49.840Z,5.83
2022-10-23T04:59:21.157Z,6.00
2022-10-23T05:01:52.416Z,6.13
2022-10-23T05:04:23.696Z,5.87
2022-10-23T05:06:55.045Z,5.43
2022-10-23T05:09:26.284Z,5.83
2022-10-23T05:11:57.528Z,4.70
2022-10-23T05:14:28.830Z,4.60
2022-10-23T05:17:20.722Z,4.33
2022-10-23T05:19:55.332Z,4.73
2022-10-23T05:22:30.688Z,4.17
2022-10-23T05:25:02.507Z,4.10
2022-10-23T05:27:33.797Z,4.10
2022-10-23T05:30:05.898Z,5.10
2022-10-23T05:32:37.903Z,3.67
2022-10-23T05:35:29.449Z,4.60
2022-10-23T05:38:02.390Z,4.07
2022-10-23T05:40:34.075Z,3.80
2022-10-23T05:43:05.466Z,4.23
2022-10-23T05:45:36.732Z,3.63
2022-10-23T05:48:11.385Z,4.00
2022-10-23T05:50:53.636Z,3.63
2022-10-23T05:53:25.812Z,3.83
2022-10-23T05:55:57.065Z,3.57
2022-10-23T05:58:28.298Z,3.87
2022-10-23T06:00:59.996Z,4.70
2022-10-23T06:03:31.265Z,3.80
2022-10-23T06:06:02.612Z,4.00
2022-10-23T06:08:34.737Z,4.00
2022-10-23T06:11:07.902Z,3.77
2022-10-23T06:13:39.762Z,3.80
2022-10-23T06:16:13.420Z,4.77
2022-10-23T06:18:48.668Z,5.10
2022-10-23T06:21:20.188Z,4.87
2022-10-23T06:23:51.653Z,5.20
2022-10-23T06:26:22.978Z,5.03
2022-10-23T06:28:54.233Z,5.03
2022-10-23T06:31:28.246Z,4.60
2022-10-23T06:34:00.215Z,5.30
2022-10-23T06:36:31.697Z,5.30
2022-10-23T06:39:03.130Z,6.43
2022-10-23T06:41:34.394Z,5.80
2022-10-23T06:44:05.673Z,4.80
2022-10-23T06:46:37.041Z,4.80
2022-10-23T06:49:08.345Z,4.67
2022-10-23T06:51:39.798Z,4.33
2022-10-23T06:54:11.415Z,4.73
2022-10-23T06:56:42.675Z,5.40
2022-10-23T06:59:14.213Z,5.63
2022-10-23T07:01:45.643Z,5.23
2022-10-23T07:04:17.063Z,5.30
2022-10-23T07:06:48.366Z,4.97
2022-10-23T07:09:19.727Z,5.93
2022-10-23T07:11:51.019Z,5.20
2022-10-23T07:14:22.383Z,4.87
2022-10-23T07:16:53.628Z,5.63
2022-10-23T07:19:25.069Z,5.67
2022-10-23T07:21:56.382Z,4.93
2022-10-23T07:24:27.756Z,5.87
2022-10-23T07:26:59.056Z,5.00
2022-10-23T07:29:30.624Z,5.00
2022-10-23T07:32:01.977Z,5.63
2022-10-23T07:34:33.373Z,5.43
2022-10-23T07:37:04.702Z,5.10
2022-10-23T07:39:35.965Z,5.50
2022-10-23T07:42:09.404Z,5.30
2022-10-23T07:44:40.690Z,4.63
2022-10-23T07:47:11.950Z,5.27
2022-10-23T07:49:43.204Z,4.57
2022-10-23T07:52:14.520Z,4.55
2022-10-23T07:54:45.775Z,4.07
2022-10-23T07:57:17.074Z,4.67
2022-10-23T07:59:48.370Z,4.17
2022-10-23T08:02:20.751Z,4.23
2022-10-23T08:04:52.213Z,4.10
2022-10-23T08:07:23.522Z,4.10
2022-10-23T08:09:54.773Z,4.17
2022-10-23T08:12:26.196Z,4.13
2022-10-23T08:14:57.504Z,4.13
2022-10-23T08:17:28.810Z,3.80
2022-10-23T08:20:00.135Z,3.97
2022-10-23T08:22:31.516Z,3.73
2022-10-23T08:25:02.788Z,4.20
2022-10-23T08:27:34.196Z,3.50
2022-10-23T08:30:05.967Z,4.10
2022-10-23T08:32:37.239Z,3.40
2022-10-23T08:35:08.975Z,2.80
2022-10-23T08:37:40.393Z,2.50
2022-10-23T08:40:17.121Z,2.57
2022-10-23T08:42:57.265Z,2.10
2022-10-23T08:45:39.830Z,2.47
2022-10-23T08:48:56.599Z,2.33
2022-10-23T08:51:42.345Z,2.30
2022-10-23T08:54:15.652Z,2.22
2022-10-23T08:56:58.293Z,1.80
2022-10-23T08:59:39.497Z,2.00
2022-10-23T09:02:18.440Z,2.17
2022-10-23T09:04:53.221Z,2.47
2022-10-23T09:07:48.781Z,2.70
2022-10-23T09:10:33.729Z,2.30
2022-10-23T09:13:26.451Z,2.13
2022-10-23T09:16:15.628Z,2.60
2022-10-23T09:18:48.470Z,2.33
2022-10-23T09:21:20.830Z,2.47
2022-10-23T09:23:52.113Z,2.00
2022-10-23T09:26:23.511Z,3.20
2022-10-23T09:29:07.471Z,2.20
2022-10-23T09:31:58.936Z,2.30
2022-10-23T09:34:32.588Z,3.17
2022-10-23T09:37:22.732Z,2.30
2022-10-23T09:40:16.479Z,3.30
2022-10-23T09:42:54.117Z,2.30
2022-10-23T09:45:34.852Z,2.03
2022-10-23T09:48:18.633Z,2.67
2022-10-23T09:50:59.985Z,2.40
2022-10-23T09:53:38.194Z,2.63
2022-10-23T09:56:31.214Z,1.90
2022-10-23T09:59:06.123Z,2.50
2022-10-23T10:01:46.495Z,2.33
2022-10-23T10:04:18.074Z,2.30
2022-10-23T10:06:57.580Z,2.58
2022-10-23T10:09:28.867Z,1.80
2022-10-23T10:12:26.482Z,2.35
2022-10-23T10:15:22.598Z,1.85
2022-10-23T10:18:42.143Z,2.85
2022-10-23T10:21:39.073Z,2.28
2022-10-23T10:27:20.401Z,1.95
2022-10-23T10:30:13.632Z,2.03
2022-10-23T10:33:01.145Z,2.00
2022-10-23T10:35:45.677Z,1.85
2022-10-23T10:38:35.593Z,1.70
2022-10-23T10:41:35.518Z,2.10
2022-10-23T10:44:15.806Z,1.85
2022-10-23T10:46:58.275Z,1.70
2022-10-23T10:50:11.640Z,2.25
2022-10-23T10:53:22.874Z,1.80
2022-10-23T10:55:57.122Z,1.50
2022-10-23T10:58:36.376Z,2.65
2022-10-23T11:01:17.209Z,1.80
2022-10-23T11:03:52.103Z,1.63
2022-10-23T11:06:29.884Z,2.42
2022-10-23T11:09:20.376Z,1.50
2022-10-23T11:11:52.492Z,2.05
2022-10-23T11:14:30.940Z,1.75
2022-10-23T11:17:10.377Z,1.63
2022-10-23T11:19:47.241Z,1.80
2022-10-23T11:22:24.591Z,1.80
2022-10-23T11:25:21.904Z,2.20
2022-10-23T11:28:04.362Z,1.90
2022-10-23T11:31:08.221Z,1.50
2022-10-23T11:34:05.981Z,2.25
2022-10-23T11:36:52.608Z,1.90
2022-10-23T11:39:29.469Z,1.85
2022-10-23T11:42:00.697Z,1.88
2022-10-23T11:44:34.715Z,1.98
2022-10-23T11:47:26.753Z,2.05
2022-10-23T11:50:07.113Z,1.60
2022-10-23T11:53:14.625Z,1.40
2022-10-23T11:56:24.734Z,1.60
2022-10-23T11:58:58.639Z,1.40
2022-10-23T12:01:58.099Z,1.55
2022-10-23T12:04:46.105Z,1.95
2022-10-23T12:07:27.777Z,1.30
2022-10-23T12:10:05.617Z,1.52
2022-10-23T12:12:42.414Z,1.60
2022-10-23T12:15:16.438Z,1.60
2022-10-23T12:17:49.897Z,1.27
2022-10-23T12:20:30.584Z,1.67
2022-10-23T12:23:30.253Z,1.45
2022-10-23T12:26:16.509Z,1.25
2022-10-23T12:29:01.959Z,1.25
2022-10-23T12:31:45.659Z,1.90
2022-10-23T12:34:31.073Z,1.80
2022-10-23T12:37:24.366Z,1.30
2022-10-23T12:39:56.414Z,1.20
2022-10-23T12:42:29.502Z,2.28
2022-10-23T12:45:05.728Z,1.77
2022-10-23T12:50:30.186Z,1.50
2022-10-23T12:53:04.386Z,1.38
2022-10-23T12:58:35.564Z,1.70
2022-10-23T13:01:07.352Z,1.63
2022-10-23T13:03:39.226Z,1.30
2022-10-23T13:06:11.474Z,1.73
2022-10-23T13:08:47.768Z,1.35
2022-10-23T13:11:20.856Z,1.80
2022-10-23T13:13:52.821Z,1.17
2022-10-23T13:16:25.905Z,0.93
2022-10-23T13:18:57.154Z,1.73
2022-10-23T13:21:29.691Z,1.50
2022-10-23T13:24:01.052Z,1.65
2022-10-23T13:26:47.694Z,1.58
2022-10-23T13:29:26.656Z,1.50
2022-10-23T13:31:58.340Z,1.80
2022-10-23T13:34:30.704Z,1.40
2022-10-23T13:37:24.402Z,1.65
2022-10-23T13:40:10.037Z,1.35
2022-10-23T13:42:41.695Z,1.40
2022-10-23T13:45:18.949Z,1.40
2022-10-23T13:47:50.466Z,1.40
2022-10-23T13:50:21.772Z,2.00
2022-10-23T13:52:53.261Z,1.42
2022-10-23T13:55:26.198Z,1.40
2022-10-23T13:57:57.433Z,1.48
2022-10-23T14:00:28.858Z,1.10
2022-10-23T14:03:00.191Z,1.25
2022-10-23T14:05:32.124Z,1.15
2022-10-23T14:08:03.462Z,1.60
2022-10-23T14:10:34.996Z,1.70
2022-10-23T14:13:06.647Z,1.50
2022-10-23T14:15:38.153Z,1.80
2022-10-23T14:18:09.410Z,2.58
2022-10-23T14:20:40.775Z,1.40
2022-10-23T14:23:12.042Z,1.50
2022-10-23T14:25:43.362Z,1.40
2022-10-23T14:28:14.616Z,1.85
2022-10-23T14:30:45.896Z,1.63
2022-10-23T14:33:17.240Z,1.73
2022-10-23T14:35:51.494Z,1.55
2022-10-23T14:38:22.733Z,1.45
2022-10-23T14:40:53.984Z,1.80
2022-10-23T14:43:25.634Z,1.98
2022-10-23T14:45:56.953Z,1.90
2022-10-23T14:48:28.184Z,1.40
2022-10-23T14:50:59.430Z,1.88
2022-10-23T14:53:30.690Z,2.00
2022-10-23T14:56:03.641Z,1.67
2022-10-23T14:58:34.908Z,1.25
2022-10-23T15:01:06.537Z,2.10
2022-10-23T15:03:37.950Z,1.80
2022-10-23T15:06:11.058Z,1.70
2022-10-23T15:08:43.136Z,1.70
2022-10-23T15:11:14.407Z,2.28
2022-10-23T15:13:45.730Z,1.70
2022-10-23T15:16:17.282Z,2.20
2022-10-23T15:18:49.279Z,2.03
2022-10-23T15:21:20.754Z,1.83
2022-10-23T15:23:52.984Z,2.20
2022-10-23T15:26:25.477Z,2.17
2022-10-23T15:29:01.543Z,1.90
2022-10-23T15:34:18.970Z,1.80
2022-10-23T15:36:51.150Z,2.38
2022-10-23T15:39:24.953Z,2.35
2022-10-23T15:41:56.853Z,2.35
2022-10-23T15:44:30.772Z,3.20
2022-10-23T15:47:02.154Z,2.50
2022-10-23T15:49:33.682Z,2.60
2022-10-23T15:52:05.424Z,2.10
2022-10-23T15:54:36.905Z,2.33
2022-10-23T15:57:08.202Z,2.95
2022-10-23T15:59:39.677Z,2.45
2022-10-23T16:02:12.041Z,2.38
2022-10-23T16:04:43.420Z,2.40
2022-10-23T16:07:14.918Z,2.10
2022-10-23T16:09:46.326Z,2.90
2022-10-23T16:12:18.343Z,2.42
2022-10-23T16:14:49.874Z,2.30
2022-10-23T16:17:21.171Z,4.07
2022-10-23T16:19:52.414Z,2.27
2022-10-23T16:22:23.687Z,3.05
2022-10-23T16:24:55.066Z,2.83
2022-10-23T16:27:26.347Z,2.93
2022-10-23T16:29:57.634Z,2.20
2022-10-23T16:32:29.049Z,2.70
2022-10-23T16:35:00.470Z,2.00
2022-10-23T16:37:33.214Z,2.50
2022-10-23T16:40:05.222Z,2.30
2022-10-23T16:42:36.797Z,2.63
2022-10-23T16:45:09.520Z,2.10
2022-10-23T16:47:41.016Z,2.80
2022-10-23T16:50:12.435Z,2.20
2022-10-23T16:52:44.109Z,3.20
2022-10-23T16:55:15.700Z,2.63
2022-10-23T16:57:46.978Z,2.23
2022-10-23T17:00:21.861Z,2.17
2022-10-23T17:02:53.272Z,2.23
2022-10-23T17:05:24.559Z,2.30
2022-10-23T17:07:55.857Z,2.03
2022-10-23T17:10:27.698Z,1.93
2022-10-23T17:12:58.942Z,2.00
2022-10-23T17:15:30.209Z,2.20
2022-10-23T17:18:01.579Z,2.27
2022-10-23T17:20:32.957Z,2.00
2022-10-23T17:23:04.278Z,1.77
2022-10-23T17:25:40.425Z,1.73
2022-10-23T17:28:11.681Z,1.90
2022-10-23T17:30:42.935Z,2.00
2022-10-23T17:33:14.541Z,1.90
2022-10-23T17:35:46.241Z,1.90
2022-10-23T17:38:19.002Z,1.90
2022-10-23T17:40:50.241Z,2.60
2022-10-23T17:43:21.528Z,2.00
2022-10-23T17:45:52.826Z,2.20
2022-10-23T17:48:24.665Z,2.27
2022-10-23T17:51:08.861Z,2.17
2022-10-23T17:53:41.824Z,1.87
2022-10-23T17:56:22.314Z,2.13
2022-10-23T17:58:56.149Z,1.80
2022-10-23T18:01:29.589Z,2.00
2022-10-23T18:04:03.628Z,1.93
2022-10-23T18:06:40.525Z,2.17
2022-10-23T18:09:12.846Z,2.03
2022-10-23T18:11:48.142Z,2.47
2022-10-23T18:14:21.648Z,2.33
2022-10-23T18:16:53.463Z,1.97
2022-10-23T18:19:24.721Z,2.03
2022-10-23T18:21:56.301Z,2.40
2022-10-23T18:24:27.543Z,1.73
2022-10-23T18:26:58.823Z,2.00
2022-10-23T18:29:30.197Z,2.10
2022-10-23T18:32:01.474Z,2.00
2022-10-23T18:34:32.743Z,2.70
2022-10-23T18:37:04.062Z,2.60
2022-10-23T18:39:35.362Z,2.10
2022-10-23T18:42:06.664Z,2.13
2022-10-23T18:44:38.187Z,2.07
2022-10-23T18:47:09.521Z,1.73
2022-10-23T18:49:40.826Z,2.47
2022-10-23T18:52:12.114Z,2.10
2022-10-23T18:54:43.420Z,1.53
2022-10-23T18:57:14.911Z,1.80
2022-10-23T18:59:46.169Z,1.87
2022-10-23T19:02:17.962Z,1.97
2022-10-23T19:04:49.407Z,1.90
2022-10-23T19:07:21.369Z,1.97
2022-10-23T19:09:52.980Z,1.67
2022-10-23T19:12:24.510Z,1.47
2022-10-23T19:14:55.786Z,1.57
2022-10-23T19:17:32.218Z,1.73
2022-10-23T19:20:10.765Z,2.03
2022-10-23T19:22:44.725Z,1.57
2022-10-23T19:25:35.358Z,2.10
2022-10-23T19:28:09.076Z,1.73
2022-10-23T19:30:40.443Z,1.53
2022-10-23T19:33:11.713Z,1.40
2022-10-23T19:35:42.973Z,1.67
2022-10-23T19:38:14.225Z,2.37
2022-10-23T19:40:45.620Z,2.00
2022-10-23T19:43:16.944Z,1.50
2022-10-23T19:45:48.278Z,1.93
2022-10-23T19:48:19.737Z,1.77
2022-10-23T19:50:50.990Z,1.30
2022-10-23T19:53:22.568Z,1.50
2022-10-23T19:56:05.441Z,1.73
2022-10-23T19:58:37.573Z,1.93
2022-10-23T20:01:15.795Z,1.77
2022-10-23T20:03:48.744Z,1.50
2022-10-23T20:06:23.458Z,1.70
2022-10-23T20:08:55.930Z,1.80
2022-10-23T20:11:30.519Z,1.80
2022-10-23T20:14:02.107Z,1.77
2022-10-23T20:16:38.917Z,2.27
2022-10-23T20:19:11.799Z,1.93
2022-10-23T20:21:46.356Z,1.60
2022-10-23T20:24:19.217Z,2.00
2022-10-23T20:26:54.003Z,1.60
2022-10-23T20:29:26.285Z,2.20
2022-10-23T20:31:57.643Z,1.97
2022-10-23T20:34:28.989Z,1.50
2022-10-23T20:37:00.737Z,2.23
2022-10-23T20:39:35.486Z,2.20
2022-10-23T20:42:07.570Z,2.10
2022-10-23T20:44:38.927Z,2.03
2022-10-23T20:47:10.268Z,1.97
2022-10-23T20:49:41.567Z,1.83
2022-10-23T20:52:12.914Z,1.73
2022-10-23T20:54:44.210Z,2.20
2022-10-23T20:57:17.967Z,1.93
2022-10-23T20:59:53.192Z,3.03
2022-10-23T21:02:24.713Z,2.10
2022-10-23T21:04:56.130Z,1.70
2022-10-23T21:07:27.519Z,2.27
2022-10-23T21:09:59.286Z,1.80
2022-10-23T21:12:30.960Z,2.10
2022-10-23T21:15:02.215Z,2.00
2022-10-23T21:17:36.034Z,1.73
2022-10-23T21:20:07.808Z,1.50
2022-10-23T21:22:39.066Z,1.63
2022-10-23T21:25:10.659Z,1.50
2022-10-23T21:27:42.291Z,1.30
2022-10-23T21:30:13.902Z,1.17
2022-10-23T21:32:45.159Z,1.40
2022-10-23T21:35:16.561Z,1.23
2022-10-23T21:37:47.834Z,1.23
2022-10-23T21:40:19.127Z,1.27
2022-10-23T21:42:50.390Z,1.27
2022-10-23T21:45:21.699Z,1.50
2022-10-23T21:47:52.979Z,1.63
2022-10-23T21:50:24.522Z,1.57
2022-10-23T21:52:56.890Z,2.10
2022-10-23T21:55:30.331Z,1.67
2022-10-23T21:58:01.685Z,1.33
2022-10-23T22:00:35.337Z,1.77
2022-10-23T22:03:06.634Z,1.50
2022-10-23T22:05:37.876Z,1.93
2022-10-23T22:08:09.227Z,1.50
2022-10-23T22:10:40.464Z,1.60
2022-10-23T22:13:11.759Z,2.03
2022-10-23T22:15:46.066Z,1.80
2022-10-23T22:18:17.329Z,1.70
2022-10-23T22:20:48.596Z,1.47
2022-10-23T22:23:19.882Z,1.43
2022-10-23T22:25:51.188Z,1.33
2022-10-23T22:28:23.658Z,1.60
2022-10-23T22:30:55.051Z,1.40
2022-10-23T22:33:26.431Z,1.77
2022-10-23T22:36:02.602Z,1.60
2022-10-23T22:38:33.862Z,1.50
2022-10-23T22:41:05.255Z,1.40
2022-10-23T22:43:36.949Z,2.10
2022-10-23T22:46:10.858Z,1.70
2022-10-23T22:48:42.945Z,2.70
2022-10-23T22:51:17.095Z,2.20
2022-10-23T22:53:48.691Z,2.23
2022-10-23T22:56:22.650Z,1.93
2022-10-23T22:58:54.889Z,2.17
2022-10-23T23:01:47.984Z,2.27
2022-10-23T23:04:37.330Z,2.73
2022-10-23T23:07:11.039Z,2.33
2022-10-23T23:09:43.882Z,2.70
2022-10-23T23:12:15.404Z,2.40
2022-10-23T23:14:46.796Z,2.90
2022-10-23T23:17:18.082Z,3.43
2022-10-23T23:19:49.343Z,2.57
2022-10-23T23:22:20.726Z,2.23
2022-10-23T23:24:52.125Z,2.50
2022-10-23T23:27:23.407Z,2.93
2022-10-23T23:29:58.122Z,2.50
2022-10-23T23:32:29.373Z,2.47
2022-10-23T23:35:01.407Z,2.27
2022-10-23T23:37:32.668Z,2.30
2022-10-23T23:40:04.574Z,2.40
2022-10-23T23:42:35.988Z,2.20
2022-10-23T23:45:14.580Z,2.73
2022-10-23T23:47:46.916Z,2.57
2022-10-23T23:50:18.608Z,2.30
2022-10-23T23:52:49.898Z,2.10
2022-10-23T23:55:21.165Z,2.63
2022-10-23T23:57:52.440Z,2.23
